Terminal Aerodrome Forecast
Issued by NWS Portland, ME

Home | Current Version | Previous Version | Text Only | Print | Product List | Glossary On
Versions: 1 2 3 4 5 6 7 8 9 10 11 12 13 14 15 16 17 18 19
000
FTUS41 KGYX 281120
TAFCON
TAF
KCON 281120Z 2812/2912 35006KT P6SM -SN OVC040
     FM281300 35008KT 3SM -SN BR OVC015
     FM281400 35010KT 1SM -SN BR OVC007
     FM282100 35010KT 5SM -SN BR OVC015
     FM290000 35007KT 6SM BR SCT015 OVC025=

USA.gov is the U.S. government's official web portal to all federal, state and local government web resources and services.